createdAt,value
2018-09-26T00:01:39.562Z,29.18
2018-09-26T00:04:05.963Z,29.15
2018-09-26T00:06:32.325Z,29.24
2018-09-26T00:08:58.725Z,29.23
2018-09-26T00:11:25.097Z,29.33
2018-09-26T00:13:51.468Z,29.36
2018-09-26T00:16:17.830Z,29.30
2018-09-26T00:18:44.249Z,29.37
2018-09-26T00:21:11.543Z,29.46
2018-09-26T00:23:37.892Z,29.46
2018-09-26T00:26:04.278Z,29.53
2018-09-26T00:28:30.642Z,29.50
2018-09-26T00:30:56.991Z,29.54
2018-09-26T00:33:23.339Z,29.60
2018-09-26T00:35:49.972Z,29.60
2018-09-26T00:38:16.393Z,29.64
2018-09-26T00:40:42.792Z,29.69
2018-09-26T00:43:09.182Z,29.75
2018-09-26T00:45:35.543Z,29.75
2018-09-26T00:48:01.995Z,29.77
2018-09-26T00:50:28.360Z,29.75
2018-09-26T00:52:54.717Z,29.81
2018-09-26T00:55:21.151Z,29.83
2018-09-26T00:57:47.520Z,29.88
2018-09-26T01:00:13.874Z,29.87
2018-09-26T01:02:40.227Z,29.72
2018-09-26T01:05:06.588Z,30.18
2018-09-26T01:07:32.991Z,30.24
2018-09-26T01:09:59.353Z,30.41
2018-09-26T01:12:25.811Z,30.59
2018-09-26T01:14:52.192Z,30.82
2018-09-26T01:17:18.559Z,30.97
2018-09-26T01:19:44.924Z,30.97
2018-09-26T01:22:11.311Z,30.93
2018-09-26T01:24:37.687Z,31.03
2018-09-26T01:27:04.083Z,31.05
2018-09-26T01:29:30.912Z,30.95
2018-09-26T01:31:57.269Z,30.96
2018-09-26T01:34:23.699Z,30.96
2018-09-26T01:36:50.077Z,31.07
2018-09-26T01:39:16.433Z,31.06
2018-09-26T01:41:42.847Z,30.98
2018-09-26T01:44:09.199Z,31.16
2018-09-26T01:46:35.580Z,31.05
2018-09-26T01:49:01.945Z,31.00
2018-09-26T01:51:28.321Z,31.02
2018-09-26T01:53:54.680Z,31.09
2018-09-26T01:56:21.088Z,31.11
2018-09-26T01:58:47.437Z,31.15
2018-09-26T02:01:13.820Z,31.09
2018-09-26T02:03:40.227Z,31.15
2018-09-26T02:06:06.608Z,31.22
2018-09-26T02:08:33.016Z,31.14
2018-09-26T02:10:59.459Z,31.12
2018-09-26T02:13:26.012Z,31.14
2018-09-26T02:15:52.421Z,31.18
2018-09-26T02:18:18.893Z,31.17
2018-09-26T02:20:45.310Z,31.06
2018-09-26T02:23:11.666Z,31.17
2018-09-26T02:25:38.021Z,31.19
2018-09-26T02:28:04.378Z,31.16
2018-09-26T02:30:30.752Z,31.37
2018-09-26T02:32:57.110Z,31.21
2018-09-26T02:35:23.652Z,31.36
2018-09-26T02:37:50.036Z,31.29
2018-09-26T02:40:16.395Z,31.41
2018-09-26T02:42:42.763Z,31.36
2018-09-26T02:45:09.153Z,31.37
2018-09-26T02:47:35.531Z,31.35
2018-09-26T02:50:01.893Z,31.41
2018-09-26T02:52:28.247Z,31.45
2018-09-26T02:54:54.591Z,31.39
2018-09-26T02:57:20.978Z,31.43
2018-09-26T02:59:47.349Z,31.48
2018-09-26T03:02:13.739Z,31.53
2018-09-26T03:04:40.111Z,31.45
2018-09-26T03:07:06.640Z,31.55
2018-09-26T03:09:33.033Z,31.53
2018-09-26T03:11:59.415Z,31.59
2018-09-26T03:14:25.908Z,31.63
2018-09-26T03:16:52.286Z,31.55
2018-09-26T03:19:18.725Z,31.49
2018-09-26T03:21:45.152Z,31.66
2018-09-26T03:24:11.548Z,31.57
2018-09-26T03:26:37.962Z,31.69
2018-09-26T03:29:04.342Z,31.64
2018-09-26T03:31:30.716Z,31.71
2018-09-26T03:33:57.101Z,31.63
2018-09-26T03:36:23.461Z,31.79
2018-09-26T03:38:49.869Z,31.66
2018-09-26T03:41:16.203Z,31.71
2018-09-26T03:43:42.577Z,31.61
2018-09-26T03:46:08.931Z,31.52
2018-09-26T03:48:35.394Z,31.57
2018-09-26T03:51:01.776Z,31.54
2018-09-26T03:53:28.104Z,31.49
2018-09-26T03:55:54.426Z,31.56
2018-09-26T03:58:20.760Z,31.55
2018-09-26T04:00:47.149Z,31.56
2018-09-26T04:03:13.497Z,31.64
2018-09-26T04:05:39.884Z,31.58
2018-09-26T04:08:06.232Z,31.66
2018-09-26T04:10:32.574Z,31.64
2018-09-26T04:12:59.039Z,31.57
2018-09-26T04:15:25.334Z,31.58
2018-09-26T04:17:51.680Z,31.60
2018-09-26T04:20:18.124Z,31.60
2018-09-26T04:22:44.457Z,31.70
2018-09-26T04:25:10.804Z,31.55
2018-09-26T04:27:37.543Z,31.75
2018-09-26T04:30:03.943Z,31.75
2018-09-26T04:32:30.465Z,31.56
2018-09-26T04:34:56.810Z,31.61
2018-09-26T04:37:23.141Z,31.51
2018-09-26T04:39:49.511Z,31.55
2018-09-26T04:42:15.861Z,31.34
2018-09-26T04:44:42.205Z,31.37
2018-09-26T04:47:08.536Z,31.33
2018-09-26T04:49:34.880Z,31.29
2018-09-26T04:52:01.299Z,31.21
2018-09-26T04:54:27.679Z,31.23
2018-09-26T04:56:54.009Z,31.12
2018-09-26T04:59:20.355Z,31.16
2018-09-26T05:01:46.720Z,31.05
2018-09-26T05:04:13.110Z,30.93
2018-09-26T05:06:39.439Z,30.81
2018-09-26T05:09:05.824Z,30.76
2018-09-26T05:11:32.204Z,30.80
2018-09-26T05:13:58.539Z,30.75
2018-09-26T05:16:24.891Z,30.79
2018-09-26T05:18:51.296Z,30.68
2018-09-26T05:21:17.668Z,30.75
2018-09-26T05:23:44.057Z,30.88
2018-09-26T05:26:10.473Z,30.59
2018-09-26T05:28:36.842Z,30.56
2018-09-26T05:31:03.251Z,30.41
2018-09-26T05:33:29.598Z,30.27
2018-09-26T05:35:55.928Z,30.43
2018-09-26T05:38:22.278Z,30.17
2018-09-26T05:40:48.652Z,30.11
2018-09-26T05:43:15.140Z,30.00
2018-09-26T05:45:41.543Z,29.83
2018-09-26T05:48:08.077Z,29.73
2018-09-26T05:50:34.453Z,29.57
2018-09-26T05:53:00.840Z,29.41
2018-09-26T05:55:27.184Z,29.33
2018-09-26T05:57:53.535Z,29.23
2018-09-26T06:00:19.904Z,29.27
2018-09-26T06:02:46.365Z,29.20
2018-09-26T06:05:12.874Z,28.92
2018-09-26T06:07:39.253Z,28.89
2018-09-26T06:10:05.628Z,28.98
2018-09-26T06:12:32.107Z,28.72
2018-09-26T06:14:59.369Z,28.75
2018-09-26T06:17:25.855Z,28.61
2018-09-26T06:19:52.189Z,28.50
2018-09-26T06:22:18.574Z,28.48
2018-09-26T06:24:45.013Z,28.38
2018-09-26T06:27:11.312Z,28.31
2018-09-26T06:29:37.704Z,28.25
2018-09-26T06:32:04.094Z,28.42
2018-09-26T06:34:30.415Z,28.24
2018-09-26T06:36:56.754Z,28.49
2018-09-26T06:39:23.104Z,28.21
2018-09-26T06:41:49.439Z,27.98
2018-09-26T06:44:15.819Z,27.98
2018-09-26T06:46:42.208Z,27.98
2018-09-26T06:49:08.636Z,28.14
2018-09-26T06:51:35.075Z,27.86
2018-09-26T06:54:01.516Z,27.99
2018-09-26T06:56:27.885Z,28.12
2018-09-26T06:58:54.294Z,28.02
2018-09-26T07:01:20.752Z,27.92
2018-09-26T07:03:47.185Z,27.85
2018-09-26T07:06:13.620Z,27.83
2018-09-26T07:08:40.023Z,27.76
2018-09-26T07:11:06.370Z,27.82
2018-09-26T07:13:32.830Z,28.34
2018-09-26T07:15:59.315Z,27.88
2018-09-26T07:18:26.809Z,27.80
2018-09-26T07:20:53.215Z,27.61
2018-09-26T07:23:19.647Z,27.55
2018-09-26T07:25:46.177Z,27.69
2018-09-26T07:28:12.575Z,27.63
2018-09-26T07:30:39.070Z,27.89
2018-09-26T07:33:05.504Z,27.78
2018-09-26T07:35:32.028Z,27.68
2018-09-26T07:37:58.639Z,27.63
2018-09-26T07:40:25.165Z,27.54
2018-09-26T07:42:51.552Z,27.54
2018-09-26T07:45:18.081Z,27.69
2018-09-26T07:47:44.606Z,27.82
2018-09-26T07:50:11.065Z,27.85
2018-09-26T07:52:37.471Z,27.89
2018-09-26T07:55:03.870Z,27.84
2018-09-26T07:57:30.316Z,27.44
2018-09-26T07:59:56.855Z,27.28
2018-09-26T08:02:23.221Z,27.37
2018-09-26T08:04:49.664Z,27.59
2018-09-26T08:07:16.102Z,27.38
2018-09-26T08:09:42.604Z,27.05
2018-09-26T08:12:09.036Z,27.09
2018-09-26T08:14:35.576Z,27.03
2018-09-26T08:17:01.937Z,27.07
2018-09-26T08:19:28.370Z,27.13
2018-09-26T08:21:54.781Z,27.18
2018-09-26T08:24:21.250Z,27.20
2018-09-26T08:26:47.795Z,27.26
2018-09-26T08:29:14.169Z,27.16
2018-09-26T08:31:40.604Z,27.13
2018-09-26T08:34:06.980Z,27.00
2018-09-26T08:36:33.338Z,27.08
2018-09-26T08:38:59.717Z,26.80
2018-09-26T08:41:26.147Z,26.74
2018-09-26T08:43:52.538Z,26.78
2018-09-26T08:46:18.902Z,26.46
2018-09-26T08:48:45.424Z,26.73
2018-09-26T08:51:12.371Z,26.62
2018-09-26T08:53:38.891Z,26.95
2018-09-26T08:56:05.368Z,26.62
2018-09-26T08:58:31.721Z,26.25
2018-09-26T09:00:58.138Z,26.46
2018-09-26T09:03:24.509Z,26.60
2018-09-26T09:05:50.928Z,26.23
2018-09-26T09:08:17.311Z,26.27
2018-09-26T09:10:43.808Z,25.93
2018-09-26T09:13:10.268Z,25.90
2018-09-26T09:15:36.768Z,26.22
2018-09-26T09:18:03.240Z,25.89
2018-09-26T09:20:29.711Z,26.02
2018-09-26T09:22:56.065Z,25.80
2018-09-26T09:25:22.465Z,25.85
2018-09-26T09:27:48.889Z,25.61
2018-09-26T09:30:15.398Z,26.14
2018-09-26T09:32:41.833Z,25.80
2018-09-26T09:35:08.590Z,26.03
2018-09-26T09:37:35.106Z,25.41
2018-09-26T09:40:01.966Z,25.69
2018-09-26T09:42:28.388Z,25.56
2018-09-26T09:44:54.774Z,25.18
2018-09-26T09:47:21.106Z,25.64
2018-09-26T09:49:47.513Z,25.32
2018-09-26T09:52:13.903Z,25.46
2018-09-26T09:54:40.343Z,25.27
2018-09-26T09:57:06.702Z,24.98
2018-09-26T09:59:33.173Z,25.03
2018-09-26T10:01:59.595Z,24.83
2018-09-26T10:04:26.072Z,24.97
2018-09-26T10:06:52.509Z,24.71
2018-09-26T10:09:18.873Z,25.08
2018-09-26T10:11:45.271Z,25.07
2018-09-26T10:14:11.637Z,24.68
2018-09-26T10:16:38.037Z,25.22
2018-09-26T10:19:04.695Z,24.99
2018-09-26T10:21:31.205Z,25.05
2018-09-26T10:23:57.636Z,24.91
2018-09-26T10:26:24.204Z,24.63
2018-09-26T10:28:50.616Z,24.59
2018-09-26T10:31:17.100Z,24.68
2018-09-26T10:33:43.686Z,24.49
2018-09-26T10:36:10.083Z,24.71
2018-09-26T10:38:36.474Z,24.40
2018-09-26T10:41:02.937Z,24.61
2018-09-26T10:43:29.312Z,24.56
2018-09-26T10:45:55.794Z,24.74
2018-09-26T10:48:22.173Z,24.33
2018-09-26T10:50:48.545Z,24.85
2018-09-26T10:53:14.875Z,24.55
2018-09-26T10:55:41.295Z,24.37
2018-09-26T10:58:07.737Z,23.97
2018-09-26T11:00:34.273Z,24.12
2018-09-26T11:03:00.775Z,24.34
2018-09-26T11:05:27.308Z,24.51
2018-09-26T11:07:53.739Z,24.38
2018-09-26T11:10:20.251Z,24.20
2018-09-26T11:12:46.721Z,24.17
2018-09-26T11:15:13.087Z,24.14
2018-09-26T11:17:39.494Z,24.60
2018-09-26T11:20:08.982Z,24.41
2018-09-26T11:22:36.597Z,23.83
2018-09-26T11:25:04.706Z,24.13
2018-09-26T11:27:33.920Z,23.95
2018-09-26T11:30:01.457Z,24.04
2018-09-26T11:32:29.229Z,24.13
2018-09-26T11:34:55.928Z,24.32
2018-09-26T11:37:22.333Z,24.30
2018-09-26T11:39:49.017Z,24.21
2018-09-26T11:42:15.645Z,24.18
2018-09-26T11:44:43.009Z,24.25
2018-09-26T11:47:09.836Z,24.05
2018-09-26T11:49:36.397Z,24.16
2018-09-26T11:52:03.170Z,24.06
2018-09-26T11:54:29.879Z,23.86
2018-09-26T11:56:56.440Z,24.18
2018-09-26T11:59:22.849Z,24.27
2018-09-26T12:01:49.248Z,24.28
2018-09-26T12:04:15.705Z,23.89
2018-09-26T12:06:42.146Z,23.54
2018-09-26T12:09:08.548Z,23.91
2018-09-26T12:11:34.988Z,23.64
2018-09-26T12:14:01.378Z,24.17
2018-09-26T12:16:27.720Z,23.82
2018-09-26T12:18:54.122Z,23.93
2018-09-26T12:21:30.353Z,23.79
2018-09-26T12:23:46.976Z,23.77
2018-09-26T12:26:13.384Z,23.71
2018-09-26T12:28:39.834Z,23.71
2018-09-26T12:31:08.259Z,23.58
2018-09-26T12:33:34.768Z,23.93
2018-09-26T12:36:01.246Z,23.66
2018-09-26T12:38:27.860Z,23.67
2018-09-26T12:40:54.361Z,23.49
2018-09-26T12:43:22.675Z,23.56
2018-09-26T12:45:50.072Z,23.89
2018-09-26T12:48:17.031Z,23.51
2018-09-26T12:50:45.744Z,23.42
2018-09-26T12:53:12.229Z,23.45
2018-09-26T12:55:38.626Z,23.66
2018-09-26T12:58:05.079Z,23.49
2018-09-26T13:00:31.556Z,23.62
2018-09-26T13:02:58.117Z,23.54
2018-09-26T13:05:24.518Z,23.63
2018-09-26T13:07:50.923Z,23.45
2018-09-26T13:10:17.443Z,23.45
2018-09-26T13:12:43.953Z,23.55
2018-09-26T13:15:10.384Z,23.49
2018-09-26T13:17:36.756Z,23.44
2018-09-26T13:20:03.189Z,23.72
2018-09-26T13:22:29.568Z,23.15
2018-09-26T13:24:55.997Z,23.38
2018-09-26T13:27:22.384Z,23.35
2018-09-26T13:29:49.172Z,22.99
2018-09-26T13:32:15.859Z,23.16
2018-09-26T13:34:42.575Z,23.27
2018-09-26T13:37:08.974Z,23.55
2018-09-26T13:39:35.371Z,23.30
2018-09-26T13:42:01.745Z,23.44
2018-09-26T13:44:28.096Z,23.10
2018-09-26T13:46:54.594Z,23.36
2018-09-26T13:49:21.955Z,23.14
2018-09-26T13:51:48.394Z,23.25
2018-09-26T13:54:14.790Z,23.24
2018-09-26T13:56:41.149Z,23.35
2018-09-26T13:59:07.540Z,23.36
2018-09-26T14:01:33.972Z,23.43
2018-09-26T14:04:00.290Z,23.32
2018-09-26T14:06:26.779Z,23.51
2018-09-26T14:08:53.235Z,23.95
2018-09-26T14:11:19.679Z,23.41
2018-09-26T14:13:46.045Z,23.70
2018-09-26T14:16:12.421Z,23.76
2018-09-26T14:18:38.765Z,23.78
2018-09-26T14:21:05.242Z,23.85
2018-09-26T14:23:31.666Z,23.85
2018-09-26T14:25:58.046Z,23.87
2018-09-26T14:28:24.837Z,23.88
2018-09-26T14:30:51.313Z,24.21
2018-09-26T14:33:17.684Z,24.27
2018-09-26T14:35:44.016Z,23.88
2018-09-26T14:38:10.513Z,24.05
2018-09-26T14:40:36.858Z,23.83
2018-09-26T14:43:03.270Z,23.84
2018-09-26T14:45:29.658Z,23.91
2018-09-26T14:47:56.030Z,23.90
2018-09-26T14:50:22.456Z,23.64
2018-09-26T14:52:48.823Z,23.67
2018-09-26T14:55:15.176Z,23.97
2018-09-26T14:57:41.582Z,23.95
2018-09-26T15:00:08.005Z,23.83
2018-09-26T15:02:34.364Z,23.79
2018-09-26T15:05:00.812Z,23.88
2018-09-26T15:07:27.202Z,23.68
2018-09-26T15:09:53.560Z,23.65
2018-09-26T15:12:19.978Z,23.70
2018-09-26T15:14:46.329Z,23.79
2018-09-26T15:17:12.698Z,23.64
2018-09-26T15:19:39.058Z,23.92
2018-09-26T15:22:05.407Z,23.74
2018-09-26T15:24:31.761Z,23.64
2018-09-26T15:26:58.236Z,23.66
2018-09-26T15:29:24.588Z,23.58
2018-09-26T15:31:51.011Z,23.62
2018-09-26T15:34:17.457Z,23.53
2018-09-26T15:36:43.968Z,24.02
2018-09-26T15:39:10.328Z,23.79
2018-09-26T15:41:36.758Z,23.84
2018-09-26T15:44:03.087Z,23.68
2018-09-26T15:46:29.463Z,23.92
2018-09-26T15:48:55.899Z,24.09
2018-09-26T15:51:22.255Z,23.73
2018-09-26T15:53:48.600Z,24.00
2018-09-26T15:56:15.025Z,23.67
2018-09-26T15:58:41.393Z,23.96
2018-09-26T16:01:07.748Z,23.91
2018-09-26T16:03:34.180Z,23.60
2018-09-26T16:06:00.545Z,23.93
2018-09-26T16:08:26.921Z,24.02
2018-09-26T16:10:53.303Z,23.78
2018-09-26T16:13:19.710Z,23.87
2018-09-26T16:15:46.075Z,23.59
2018-09-26T16:18:12.568Z,23.78
2018-09-26T16:20:38.886Z,23.71
2018-09-26T16:23:05.332Z,23.91
2018-09-26T16:25:31.761Z,23.80
2018-09-26T16:27:58.085Z,23.81
2018-09-26T16:30:24.489Z,23.76
2018-09-26T16:32:50.796Z,23.76
2018-09-26T16:35:17.122Z,23.82
2018-09-26T16:37:43.480Z,24.01
2018-09-26T16:40:10.088Z,23.85
2018-09-26T16:42:36.653Z,24.05
2018-09-26T16:45:03.027Z,23.87
2018-09-26T16:47:29.387Z,24.08
2018-09-26T16:49:55.751Z,24.22
2018-09-26T16:52:22.137Z,24.10
2018-09-26T16:54:48.488Z,24.25
2018-09-26T16:57:14.826Z,24.13
2018-09-26T16:59:41.324Z,24.25
2018-09-26T17:02:07.663Z,24.11
2018-09-26T17:04:34.027Z,23.68
2018-09-26T17:07:00.506Z,23.81
2018-09-26T17:09:26.843Z,24.25
2018-09-26T17:11:53.226Z,24.11
2018-09-26T17:14:19.588Z,24.06
2018-09-26T17:16:45.975Z,23.96
2018-09-26T17:19:12.382Z,24.04
2018-09-26T17:21:38.725Z,24.03
2018-09-26T17:24:05.235Z,24.02
2018-09-26T17:26:31.598Z,23.94
2018-09-26T17:28:57.939Z,23.95
2018-09-26T17:31:24.479Z,23.97
2018-09-26T17:33:50.910Z,23.90
2018-09-26T17:36:17.305Z,23.92
2018-09-26T17:38:43.682Z,23.96
2018-09-26T17:41:10.049Z,23.98
2018-09-26T17:43:36.442Z,24.03
2018-09-26T17:46:02.853Z,24.06
2018-09-26T17:48:29.188Z,24.06
2018-09-26T17:50:55.547Z,24.06
2018-09-26T17:53:21.879Z,24.16
2018-09-26T17:55:48.215Z,24.26
2018-09-26T17:58:14.600Z,24.23
2018-09-26T18:00:40.948Z,24.14
2018-09-26T18:03:07.338Z,24.30
2018-09-26T18:05:33.670Z,24.38
2018-09-26T18:08:00.003Z,24.57
2018-09-26T18:10:26.422Z,24.58
2018-09-26T18:12:52.796Z,24.63
2018-09-26T18:15:19.133Z,24.42
2018-09-26T18:17:45.501Z,24.36
2018-09-26T18:20:11.848Z,24.48
2018-09-26T18:22:38.299Z,24.51
2018-09-26T18:25:04.642Z,24.66
2018-09-26T18:27:31.040Z,24.65
2018-09-26T18:29:57.343Z,24.71
2018-09-26T18:32:23.684Z,24.84
2018-09-26T18:34:50.015Z,24.87
2018-09-26T18:37:16.373Z,24.96
2018-09-26T18:39:42.843Z,24.92
2018-09-26T18:42:09.200Z,25.06
2018-09-26T18:44:35.730Z,25.10
2018-09-26T18:47:02.115Z,25.17
2018-09-26T18:49:28.470Z,25.25
2018-09-26T18:51:54.825Z,25.29
2018-09-26T18:54:21.174Z,25.42
2018-09-26T18:56:47.532Z,25.45
2018-09-26T18:59:14.030Z,25.46
2018-09-26T19:01:40.382Z,25.47
2018-09-26T19:04:06.765Z,25.56
2018-09-26T19:06:33.104Z,25.67
2018-09-26T19:08:59.508Z,25.75
2018-09-26T19:11:25.864Z,25.76
2018-09-26T19:13:52.221Z,25.73
2018-09-26T19:16:18.596Z,25.83
2018-09-26T19:18:44.951Z,26.00
2018-09-26T19:21:11.377Z,25.90
2018-09-26T19:23:37.705Z,25.98
2018-09-26T19:26:04.089Z,26.00
2018-09-26T19:28:30.489Z,26.15
2018-09-26T19:30:56.830Z,26.37
2018-09-26T19:33:23.150Z,26.41
2018-09-26T19:35:49.519Z,26.49
2018-09-26T19:38:15.978Z,26.64
2018-09-26T19:40:42.309Z,26.68
2018-09-26T19:43:08.669Z,26.72
2018-09-26T19:45:35.033Z,26.71
2018-09-26T19:48:01.372Z,26.66
2018-09-26T19:50:27.724Z,26.71
2018-09-26T19:52:54.090Z,26.88
2018-09-26T19:55:20.418Z,27.09
2018-09-26T19:57:46.799Z,27.02
2018-09-26T20:00:13.209Z,27.10
2018-09-26T20:02:39.688Z,27.06
2018-09-26T20:05:06.480Z,27.05
2018-09-26T20:07:32.997Z,27.11
2018-09-26T20:09:59.321Z,27.14
2018-09-26T20:12:25.673Z,27.25
2018-09-26T20:14:52.121Z,27.38
2018-09-26T20:17:18.586Z,27.46
2018-09-26T20:19:44.991Z,27.35
2018-09-26T20:22:11.523Z,27.42
2018-09-26T20:24:38.026Z,27.45
2018-09-26T20:27:04.455Z,27.46
2018-09-26T20:29:31.322Z,27.56
2018-09-26T20:31:57.525Z,27.60
2018-09-26T20:34:23.905Z,27.72
2018-09-26T20:36:50.269Z,27.79
2018-09-26T20:39:16.592Z,27.78
2018-09-26T20:41:42.913Z,27.84
2018-09-26T20:44:09.241Z,27.82
2018-09-26T20:46:35.571Z,27.76
2018-09-26T20:49:01.915Z,27.87
2018-09-26T20:51:28.231Z,27.91
2018-09-26T20:53:54.628Z,27.91
2018-09-26T20:56:21.028Z,27.90
2018-09-26T20:58:47.385Z,27.98
2018-09-26T21:01:13.755Z,28.01
2018-09-26T21:03:40.098Z,28.07
2018-09-26T21:06:06.530Z,28.05
2018-09-26T21:08:32.933Z,28.20
2018-09-26T21:10:59.326Z,28.22
2018-09-26T21:13:25.753Z,28.29
2018-09-26T21:15:52.150Z,28.22
2018-09-26T21:18:18.515Z,28.34
2018-09-26T21:20:44.893Z,28.39
2018-09-26T21:23:11.335Z,28.37
2018-09-26T21:25:37.712Z,28.42
2018-09-26T21:28:04.145Z,28.46
2018-09-26T21:30:30.508Z,28.44
2018-09-26T21:32:56.929Z,28.51
2018-09-26T21:35:23.287Z,28.57
2018-09-26T21:37:49.638Z,28.57
2018-09-26T21:40:15.996Z,28.64
2018-09-26T21:42:42.368Z,28.51
2018-09-26T21:45:08.831Z,28.56
2018-09-26T21:47:35.200Z,28.73
2018-09-26T21:50:01.592Z,28.60
2018-09-26T21:52:27.972Z,28.74
2018-09-26T21:54:54.415Z,28.76
2018-09-26T21:57:20.722Z,28.75
2018-09-26T21:59:47.264Z,28.83
2018-09-26T22:02:13.594Z,28.93
2018-09-26T22:04:39.925Z,28.92
2018-09-26T22:07:06.300Z,28.98
2018-09-26T22:09:32.645Z,29.01
2018-09-26T22:11:59.024Z,28.99
2018-09-26T22:14:25.356Z,28.99
2018-09-26T22:16:51.719Z,28.95
2018-09-26T22:19:18.075Z,29.04
2018-09-26T22:21:44.541Z,29.09
2018-09-26T22:24:10.916Z,29.17
2018-09-26T22:26:37.332Z,29.22
2018-09-26T22:29:03.796Z,29.29
2018-09-26T22:31:30.140Z,29.31
2018-09-26T22:33:56.524Z,29.38
2018-09-26T22:36:22.862Z,29.34
2018-09-26T22:38:49.254Z,29.25
2018-09-26T22:41:15.585Z,29.31
2018-09-26T22:43:41.973Z,29.51
2018-09-26T22:46:08.345Z,29.54
2018-09-26T22:48:34.786Z,29.49
2018-09-26T22:51:01.157Z,29.45
2018-09-26T22:53:27.516Z,29.45
2018-09-26T22:55:53.926Z,29.52
2018-09-26T22:58:20.282Z,29.64
2018-09-26T23:00:46.633Z,29.57
2018-09-26T23:03:13.044Z,29.54
2018-09-26T23:05:39.411Z,29.51
2018-09-26T23:08:05.801Z,29.55
2018-09-26T23:10:32.176Z,29.64
2018-09-26T23:12:58.843Z,29.67
2018-09-26T23:15:25.182Z,29.71
2018-09-26T23:17:51.611Z,29.65
2018-09-26T23:20:17.964Z,29.58
2018-09-26T23:22:44.378Z,29.72
2018-09-26T23:25:10.727Z,29.75
2018-09-26T23:27:37.057Z,29.70
2018-09-26T23:30:03.498Z,29.70
2018-09-26T23:32:29.938Z,29.64
2018-09-26T23:34:56.290Z,29.70
2018-09-26T23:37:22.655Z,29.81
2018-09-26T23:39:49.060Z,29.76
2018-09-26T23:42:15.466Z,29.78
2018-09-26T23:44:42.037Z,29.71
2018-09-26T23:47:08.388Z,29.61
2018-09-26T23:49:34.719Z,29.76
2018-09-26T23:52:01.093Z,29.86
2018-09-26T23:54:27.467Z,29.84
2018-09-26T23:56:53.784Z,29.72
2018-09-26T23:59:20.152Z,29.67
